Flight Track Log - Related Links

Times and Time Zones

All times are in EDT time to prevent confusion due to time zone crossing. See the TCF3494 flight status page for this flight to view local times or setup timezone preferences in your user account.

Time Position Orientation Groundspeed Altitude Reporting Facility
EDT Latitude Longitude Course Direction KTS MPH feet Rate Location/Type
Fri 05:38:19 PM 42.0167 -87.9333 90° East 201 231 2,600  Level Chicago TRACON
Fri 05:39:19 PM 42.0833 -87.8667 37° Northeast 266 306 4,100 2,188 Climbing Chicago TRACON
Fri 05:40:00 PM 41.9442 -87.2846 95° East  Level FlightAware Approximate
Fri 05:41:00 PM 41.9333 -87.1311 90° East  Level FlightAware Approximate
Fri 05:41:20 PM 42.1417 -87.6861 66° East 304 350 9,200  Level Chicago Center
Fri 05:42:00 PM 41.9333 -86.9768 90° East  Level FlightAware Approximate
Fri 05:42:22 PM 42.1006 -87.5522 112° Southeast 322 371 11,700  Level Chicago Center
Fri 05:43:00 PM 41.9333 -86.8225 90° East  Level FlightAware Approximate
Fri 05:43:24 PM 42.0636 -87.4383 114° Southeast 331 381 13,900  Level Chicago Center
Fri 05:44:26 PM 42.0344 -87.3097 107° East 360 414 15,200 1,500 Climbing Chicago Center
Fri 05:45:28 PM 42.0253 -87.1697 95° East 375 432 17,000 1,742 Climbing Chicago Center
Fri 05:46:30 PM 42.0164 -87.0281 95° East 380 437 18,800 1,561 Climbing Chicago Center
Fri 05:47:31 PM 42.0044 -86.8831 96° East 389 448 20,200 1,415 Climbing Chicago Center
Fri 05:48:33 PM 41.9950 -86.7350 95° East 396 456 21,700 1,500 Climbing Chicago Center
Fri 05:49:35 PM 41.9822 -86.5667 96° East 407 468 23,300 1,403 Climbing Chicago Center
Fri 05:50:37 PM 41.9697 -86.4119 96° East 414 476 24,600 919 Climbing Chicago Center
Fri 05:51:39 PM 41.9581 -86.2519 96° East 428 493 25,200 774 Climbing Chicago Center
Fri 05:52:41 PM 41.9428 -86.0781 97° East 464 534 26,200 1,065 Climbing Chicago Center
Fri 05:53:43 PM 41.9225 -85.8681 97° East 473 544 27,400 1,024 Climbing Chicago Center
Fri 05:54:44 PM 41.9056 -85.6856 97° East 486 559 28,300 878 Climbing Chicago Center
Fri 05:55:46 PM 41.8875 -85.5006 97° East 494 568 29,200 774 Climbing Chicago Center
Fri 05:56:48 PM 41.8683 -85.3114 98° East 502 578 29,900 807 Climbing Chicago Center
Fri 05:57:45 PM 41.8533 -85.1222 96° East 511 588 30,800 923 Climbing Cleveland Center
Fri 05:58:45 PM 41.8347 -84.9564 99° East 525 604 31,700 750 Climbing Cleveland Center
Fri 05:59:45 PM 41.8147 -84.7683 98° East 513 590 32,300 950 Climbing Cleveland Center
Fri 06:00:45 PM 41.7964 -84.5803 97° East 508 585 33,600 950 Climbing Cleveland Center
Fri 06:01:45 PM 41.7775 -84.3981 98° East 502 578 34,200 550 Climbing Cleveland Center
Fri 06:02:45 PM 41.7733 -84.2058 92° East 509 586 34,700 400 Climbing Cleveland Center
Fri 06:03:45 PM 41.7731 -84.0136 90° East 514 592 35,000 150 Climbing Cleveland Center
Fri 06:04:45 PM 41.7725 -83.8186 90° East 520 598 35,000  Level Cleveland Center
Fri 06:05:45 PM 41.7694 -83.6236 91° East 520 598 35,000  Level Cleveland Center
Fri 06:06:45 PM 41.7575 -83.4392 95° East 515 593 35,000  Level Cleveland Center
Fri 06:07:45 PM 41.7392 -83.2547 98° East 509 586 35,000  Level Cleveland Center
Fri 06:08:45 PM 41.7225 -83.0703 97° East 503 579 35,000  Level Cleveland Center
Fri 06:09:45 PM 41.7033 -82.8861 98° East 503 579 35,000  Level Cleveland Center
Fri 06:10:45 PM 41.6839 -82.7075 98° East 503 579 35,000  Level Cleveland Center
Fri 06:11:45 PM 41.6661 -82.5317 98° East 491 565 35,000  Level Cleveland Center
Fri 06:12:45 PM 41.6503 -82.3533 97° East 484 557 35,000  Level Cleveland Center
Fri 06:13:45 PM 41.6300 -82.1778 99° East 484 557 35,000  Level Cleveland Center
Fri 06:14:45 PM 41.6094 -81.9828 98° East 484 557 35,000  Level Cleveland Center
Fri 06:15:45 PM 41.5908 -81.8075 98° East 484 557 35,000  Level Cleveland Center
Fri 06:16:45 PM 41.5694 -81.6350 99° East 478 550 35,000  Level Cleveland Center
Fri 06:17:45 PM 41.5522 -81.4711 98° East 462 532 35,000  Level Cleveland Center
Fri 06:18:45 PM 41.5325 -81.3097 99° East 452 520 35,000  Level Cleveland Center
Fri 06:19:45 PM 41.5125 -81.1406 99° East 447 514 35,000  Level Cleveland Center
Fri 06:20:45 PM 41.5006 -80.9933 96° East 454 522 35,000  Level Cleveland Center
Fri 06:21:45 PM 41.4844 -80.8242 97° East 454 522 35,000  Level Cleveland Center
Fri 06:22:45 PM 41.4722 -80.6525 95° East 459 528 35,000  Level Cleveland Center
Fri 06:23:45 PM 41.4556 -80.4806 97° East 465 535 35,000  Level Cleveland Center
Fri 06:24:45 PM 41.4386 -80.2950 97° East 465 535 35,000  Level Cleveland Center
Fri 06:25:45 PM 41.4233 -80.1236 97° East 465 535 35,000  Level Cleveland Center
Fri 06:26:45 PM 41.4058 -79.9714 99° East 465 535 35,000  Level Cleveland Center
Fri 06:27:45 PM 41.3903 -79.8053 97° East 465 535 35,000  Level Cleveland Center
Fri 06:28:45 PM 41.3744 -79.6175 96° East 465 535 35,000  Level Cleveland Center
Fri 06:29:45 PM 41.3583 -79.4572 98° East 465 535 35,000 -450 Level Cleveland Center
Fri 06:30:45 PM 41.3397 -79.2889 98° East 460 529 34,100 -950 Descending Cleveland Center
Fri 06:31:45 PM 41.3211 -79.1206 98° East 460 529 33,100 -550 Descending Cleveland Center
Fri 06:32:45 PM 41.3019 -78.9442 98° East 470 541 33,000 -50 Descending Cleveland Center
Fri 06:33:45 PM 41.2847 -78.7678 97° East 475 547 33,000  Level Cleveland Center
Fri 06:35:23 PM 41.2550 -78.5019 98° East 485 558 33,000  Level New York Center
Fri 06:36:24 PM 41.2353 -78.3256 98° East 490 564 33,000  Level New York Center
Fri 06:37:24 PM 41.2150 -78.1494 99° East 485 558 33,000  Level New York Center
Fri 06:38:22 PM 41.1922 -77.9761 100° East 480 552 33,000  Level New York Center
Fri 06:39:22 PM 41.1714 -77.8056 99° East 475 547 33,000  Level New York Center
Fri 06:40:25 PM 41.1503 -77.6297 99° East 475 547 33,000  Level New York Center
Fri 06:41:23 PM 41.1269 -77.4567 100° East 475 547 33,000 -7,059 Level New York Center
Fri 06:42:24 PM 41.1028 -77.2889 101° East 469 540 19,000 -1,664 Descending New York Center
Fri 06:43:22 PM 41.0831 -77.1164 99° East 469 540 29,700 4,424 Climbing New York Center
Fri 06:44:22 PM 41.0572 -76.9350 101° East 481 554 27,700 -1,934 Descending New York Center
Fri 06:45:23 PM 41.0364 -76.7736 100° East 470 541 25,800 -1,835 Descending New York Center
Fri 06:46:23 PM 41.0106 -76.6228 103° East 441 507 24,000 -1,785 Descending New York Center
Fri 06:47:24 PM 40.9778 -76.4825 107° East 417 480 22,200 -1,736 Descending New York Center
Fri 06:48:24 PM 40.9428 -76.3447 109° East 399 459 20,500 -1,780 Descending New York Center
Fri 06:49:22 PM 40.9133 -76.2106 106° East 393 452 18,700 -2,017 Descending New York Center
Fri 06:50:23 PM 40.8783 -76.0678 108° East 381 438 16,500 -1,721 Descending New York Center
Fri 06:51:24 PM 40.8522 -75.9533 107° East 369 425 15,200 -1,339 Descending New York Center
Fri 06:52:24 PM 40.8219 -75.8331 108° East 353 406 13,800 -1,091 Descending New York Center
Fri 06:53:25 PM 40.7917 -75.7131 108° East 353 406 13,000 -407 Descending New York Center
Fri 06:54:22 PM 40.7575 -75.5789 109° East 353 406 13,000  Level New York Center
Fri 06:55:23 PM 40.7289 -75.4592 107° East 353 406 13,000  Level New York Center
Fri 06:56:25 PM 40.6983 -75.3394 109° East 347 399 13,000 -303 Level New York Center
Fri 06:57:22 PM 40.6564 -75.2353 118° Southeast 331 381 12,400 -966 Descending New York Center
Fri 06:58:23 PM 40.6147 -75.1261 117° Southeast 326 375 11,100 -1,250 Descending New York Center
Fri 06:59:22 PM 40.5708 -75.0139 117° Southeast 333 383 9,900 -600 Descending New York Center
Fri 07:00:23 PM 40.5389 -74.9111 112° Southeast 341 392 9,900 72 Level New York Center
Fri 07:00:45 PM 40.5167 -74.8500 116° Southeast 343 395 10,000 79 Climbing New York TRACON
Fri 07:01:39 PM 40.4833 -74.7500 114° Southeast 337 388 10,000  Level New York TRACON
Fri 07:02:39 PM 40.4500 -74.6333 111° Southeast 330 380 10,000  Level New York TRACON
Fri 07:03:39 PM 40.4333 -74.5167 101° East 346 398 10,000  Level New York TRACON
Fri 07:04:39 PM 40.4667 -74.4000 69° East 349 402 10,000 -600 Level New York TRACON
Fri 07:05:39 PM 40.5000 -74.2833 69° East 328 377 8,800 -1,500 Descending New York TRACON
Fri 07:06:39 PM 40.5333 -74.1667 69° East 336 387 7,000 -1,750 Descending New York TRACON
Fri 07:07:39 PM 40.5667 -74.0667 66° East 335 386 5,300 -1,500 Descending New York TRACON
Fri 07:08:39 PM 40.6500 -74.0333 17° North 311 358 4,000 -650 Descending New York TRACON
Fri 07:09:39 PM 40.7333 -74.0167 North 315 362 4,000  Level New York TRACON
Fri 07:10:39 PM 40.8167 -73.9667 24° Northeast 320 368 4,000  Level New York TRACON
Fri 07:11:39 PM 40.9000 -73.9167 24° Northeast 318 366 4,000 -500 Level New York TRACON
Fri 07:12:39 PM 40.9500 -73.8333 52° Northeast 308 354 3,000 -762 Descending New York TRACON
Fri 07:13:45 PM 40.9333 -73.7833 114° Southeast 176 203 2,400 -476 Descending New York TRACON
Fri 07:14:45 PM 40.9000 -73.7833 180° South 137 158 2,000 -316 Descending New York TRACON
Fri 07:15:39 PM 40.8667 -73.8000 201° Southwest 134 154 1,800 -222 Descending New York TRACON

Login

Don't have an account? Register now (free) for customized features, flight alerts, and more!